sensor_id;sensor_type;location;lat;lon;timestamp;temperature;humidity
10702;DHT22;5402;50.004;8.246;2023-08-31T00:00:50;13.60;99.90
10702;DHT22;5402;50.004;8.246;2023-08-31T00:03:16;13.60;99.90
10702;DHT22;5402;50.004;8.246;2023-08-31T00:05:44;13.60;99.90
10702;DHT22;5402;50.004;8.246;2023-08-31T00:08:13;13.60;99.90
10702;DHT22;5402;50.004;8.246;2023-08-31T00:10:40;13.50;99.90
10702;DHT22;5402;50.004;8.246;2023-08-31T00:13:06;13.50;99.90
10702;DHT22;5402;50.004;8.246;2023-08-31T00:15:33;13.60;99.90
10702;DHT22;5402;50.004;8.246;2023-08-31T00:18:03;13.50;99.90
10702;DHT22;5402;50.004;8.246;2023-08-31T00:20:30;13.50;99.90
10702;DHT22;5402;50.004;8.246;2023-08-31T00:22:58;13.50;99.90
10702;DHT22;5402;50.004;8.246;2023-08-31T00:25:25;13.40;99.90
10702;DHT22;5402;50.004;8.246;2023-08-31T00:27:52;13.40;99.90
10702;DHT22;5402;50.004;8.246;2023-08-31T00:30:19;13.50;99.90
10702;DHT22;5402;50.004;8.246;2023-08-31T00:32:46;13.40;99.90
10702;DHT22;5402;50.004;8.246;2023-08-31T00:35:15;13.40;99.90
10702;DHT22;5402;50.004;8.246;2023-08-31T00:37:41;13.40;99.90
10702;DHT22;5402;50.004;8.246;2023-08-31T00:40:09;13.30;99.90
10702;DHT22;5402;50.004;8.246;2023-08-31T00:42:39;13.20;99.90
10702;DHT22;5402;50.004;8.246;2023-08-31T00:45:07;13.20;99.90
10702;DHT22;5402;50.004;8.246;2023-08-31T00:47:35;13.10;99.90
10702;DHT22;5402;50.004;8.246;2023-08-31T00:50:02;13.10;99.90
10702;DHT22;5402;50.004;8.246;2023-08-31T00:52:30;13.10;99.90
10702;DHT22;5402;50.004;8.246;2023-08-31T00:54:57;13.00;99.90
10702;DHT22;5402;50.004;8.246;2023-08-31T00:57:24;13.00;99.90
10702;DHT22;5402;50.004;8.246;2023-08-31T00:59:51;13.00;99.90
10702;DHT22;5402;50.004;8.246;2023-08-31T01:02:25;12.80;99.90
10702;DHT22;5402;50.004;8.246;2023-08-31T01:04:59;12.80;99.90
10702;DHT22;5402;50.004;8.246;2023-08-31T01:07:40;12.70;99.90
10702;DHT22;5402;50.004;8.246;2023-08-31T01:10:15;12.70;99.90
10702;DHT22;5402;50.004;8.246;2023-08-31T01:12:50;12.60;99.90
10702;DHT22;5402;50.004;8.246;2023-08-31T01:15:18;12.70;99.90
10702;DHT22;5402;50.004;8.246;2023-08-31T01:17:48;12.50;99.90
10702;DHT22;5402;50.004;8.246;2023-08-31T01:20:20;12.50;99.90
10702;DHT22;5402;50.004;8.246;2023-08-31T01:22:57;12.50;99.90
10702;DHT22;5402;50.004;8.246;2023-08-31T01:25:26;12.60;99.90
10702;DHT22;5402;50.004;8.246;2023-08-31T01:27:53;12.60;99.90
10702;DHT22;5402;50.004;8.246;2023-08-31T01:30:20;12.60;99.90
10702;DHT22;5402;50.004;8.246;2023-08-31T01:32:47;12.50;99.90
10702;DHT22;5402;50.004;8.246;2023-08-31T01:35:16;12.50;99.90
10702;DHT22;5402;50.004;8.246;2023-08-31T01:37:49;12.50;99.90
10702;DHT22;5402;50.004;8.246;2023-08-31T01:40:18;12.60;99.90
10702;DHT22;5402;50.004;8.246;2023-08-31T01:42:48;12.60;99.90
10702;DHT22;5402;50.004;8.246;2023-08-31T01:45:18;12.70;99.90
10702;DHT22;5402;50.004;8.246;2023-08-31T01:47:45;12.70;99.90
10702;DHT22;5402;50.004;8.246;2023-08-31T01:50:12;12.60;99.90
10702;DHT22;5402;50.004;8.246;2023-08-31T01:52:39;12.70;99.90
10702;DHT22;5402;50.004;8.246;2023-08-31T01:55:06;12.60;99.90
10702;DHT22;5402;50.004;8.246;2023-08-31T01:57:33;12.50;99.90
10702;DHT22;5402;50.004;8.246;2023-08-31T02:00:01;12.50;99.90
10702;DHT22;5402;50.004;8.246;2023-08-31T02:02:31;12.60;99.90
10702;DHT22;5402;50.004;8.246;2023-08-31T02:04:58;12.60;99.90
10702;DHT22;5402;50.004;8.246;2023-08-31T02:07:27;12.60;99.90
10702;DHT22;5402;50.004;8.246;2023-08-31T02:09:53;12.70;99.90
10702;DHT22;5402;50.004;8.246;2023-08-31T02:12:20;12.70;99.90
10702;DHT22;5402;50.004;8.246;2023-08-31T02:14:47;12.90;99.90
10702;DHT22;5402;50.004;8.246;2023-08-31T02:17:15;12.70;99.90
10702;DHT22;5402;50.004;8.246;2023-08-31T02:19:42;12.70;99.90
10702;DHT22;5402;50.004;8.246;2023-08-31T02:22:08;12.60;99.90
10702;DHT22;5402;50.004;8.246;2023-08-31T02:24:35;12.60;99.90
10702;DHT22;5402;50.004;8.246;2023-08-31T02:27:02;12.60;99.90
10702;DHT22;5402;50.004;8.246;2023-08-31T02:29:29;12.60;99.90
10702;DHT22;5402;50.004;8.246;2023-08-31T02:31:56;12.70;99.90
10702;DHT22;5402;50.004;8.246;2023-08-31T02:34:24;12.70;99.90
10702;DHT22;5402;50.004;8.246;2023-08-31T02:36:50;12.70;99.90
10702;DHT22;5402;50.004;8.246;2023-08-31T02:39:17;12.60;99.90
10702;DHT22;5402;50.004;8.246;2023-08-31T02:41:44;12.60;99.90
10702;DHT22;5402;50.004;8.246;2023-08-31T02:44:11;12.60;99.90
10702;DHT22;5402;50.004;8.246;2023-08-31T02:46:37;12.60;99.90
10702;DHT22;5402;50.004;8.246;2023-08-31T02:49:04;12.50;99.90
10702;DHT22;5402;50.004;8.246;2023-08-31T02:51:32;12.50;99.90
10702;DHT22;5402;50.004;8.246;2023-08-31T02:53:59;12.40;99.90
10702;DHT22;5402;50.004;8.246;2023-08-31T02:56:26;12.50;99.90
10702;DHT22;5402;50.004;8.246;2023-08-31T02:58:53;12.40;99.90
10702;DHT22;5402;50.004;8.246;2023-08-31T03:01:19;12.40;99.90
10702;DHT22;5402;50.004;8.246;2023-08-31T03:03:46;12.30;99.90
10702;DHT22;5402;50.004;8.246;2023-08-31T03:06:13;12.30;99.90
10702;DHT22;5402;50.004;8.246;2023-08-31T03:08:42;12.30;99.90
10702;DHT22;5402;50.004;8.246;2023-08-31T03:11:08;12.30;99.90
10702;DHT22;5402;50.004;8.246;2023-08-31T03:13:35;12.30;99.90
10702;DHT22;5402;50.004;8.246;2023-08-31T03:16:02;12.30;99.90
10702;DHT22;5402;50.004;8.246;2023-08-31T03:18:29;12.30;99.90
10702;DHT22;5402;50.004;8.246;2023-08-31T03:20:56;12.30;99.90
10702;DHT22;5402;50.004;8.246;2023-08-31T03:23:23;12.20;99.90
10702;DHT22;5402;50.004;8.246;2023-08-31T03:25:51;12.20;99.90
10702;DHT22;5402;50.004;8.246;2023-08-31T03:28:19;12.20;99.90
10702;DHT22;5402;50.004;8.246;2023-08-31T03:30:54;12.10;99.90
10702;DHT22;5402;50.004;8.246;2023-08-31T03:33:21;12.10;99.90
10702;DHT22;5402;50.004;8.246;2023-08-31T03:35:47;12.00;99.90
10702;DHT22;5402;50.004;8.246;2023-08-31T03:38:14;12.10;99.90
10702;DHT22;5402;50.004;8.246;2023-08-31T03:40:41;12.10;99.90
10702;DHT22;5402;50.004;8.246;2023-08-31T03:43:10;12.10;99.90
10702;DHT22;5402;50.004;8.246;2023-08-31T03:45:37;12.10;99.90
10702;DHT22;5402;50.004;8.246;2023-08-31T03:48:04;12.10;99.90
10702;DHT22;5402;50.004;8.246;2023-08-31T03:50:31;12.10;99.90
10702;DHT22;5402;50.004;8.246;2023-08-31T03:52:57;12.10;99.90
10702;DHT22;5402;50.004;8.246;2023-08-31T03:55:24;12.00;99.90
10702;DHT22;5402;50.004;8.246;2023-08-31T03:57:51;12.10;99.90
10702;DHT22;5402;50.004;8.246;2023-08-31T04:00:19;12.10;99.90
10702;DHT22;5402;50.004;8.246;2023-08-31T04:02:46;12.10;99.90
10702;DHT22;5402;50.004;8.246;2023-08-31T04:05:13;12.00;99.90
10702;DHT22;5402;50.004;8.246;2023-08-31T04:07:40;12.00;99.90
10702;DHT22;5402;50.004;8.246;2023-08-31T04:10:08;12.10;99.90
10702;DHT22;5402;50.004;8.246;2023-08-31T04:12:34;12.20;99.90
10702;DHT22;5402;50.004;8.246;2023-08-31T04:15:01;12.10;99.90
10702;DHT22;5402;50.004;8.246;2023-08-31T04:17:30;12.00;99.90
10702;DHT22;5402;50.004;8.246;2023-08-31T04:19:58;12.00;99.90
10702;DHT22;5402;50.004;8.246;2023-08-31T04:22:25;11.90;99.90
10702;DHT22;5402;50.004;8.246;2023-08-31T04:24:53;11.90;99.90
10702;DHT22;5402;50.004;8.246;2023-08-31T04:27:19;11.80;99.90
10702;DHT22;5402;50.004;8.246;2023-08-31T04:29:47;11.70;99.90
10702;DHT22;5402;50.004;8.246;2023-08-31T04:32:13;11.60;99.90
10702;DHT22;5402;50.004;8.246;2023-08-31T04:34:41;11.60;99.90
10702;DHT22;5402;50.004;8.246;2023-08-31T04:37:08;11.60;99.90
10702;DHT22;5402;50.004;8.246;2023-08-31T04:39:35;11.60;99.90
10702;DHT22;5402;50.004;8.246;2023-08-31T04:42:02;11.60;99.90
10702;DHT22;5402;50.004;8.246;2023-08-31T04:44:28;11.50;99.90
10702;DHT22;5402;50.004;8.246;2023-08-31T04:46:55;11.50;99.90
10702;DHT22;5402;50.004;8.246;2023-08-31T04:49:22;11.50;99.90
10702;DHT22;5402;50.004;8.246;2023-08-31T04:51:50;11.50;99.90
10702;DHT22;5402;50.004;8.246;2023-08-31T04:54:17;11.40;99.90
10702;DHT22;5402;50.004;8.246;2023-08-31T04:56:43;11.40;99.90
10702;DHT22;5402;50.004;8.246;2023-08-31T04:59:10;11.40;99.90
10702;DHT22;5402;50.004;8.246;2023-08-31T05:01:37;11.40;99.90
10702;DHT22;5402;50.004;8.246;2023-08-31T05:04:04;11.40;99.90
10702;DHT22;5402;50.004;8.246;2023-08-31T05:06:31;11.50;99.90
10702;DHT22;5402;50.004;8.246;2023-08-31T05:08:59;11.60;99.90
10702;DHT22;5402;50.004;8.246;2023-08-31T05:11:26;11.70;99.90
10702;DHT22;5402;50.004;8.246;2023-08-31T05:13:53;11.70;99.90
10702;DHT22;5402;50.004;8.246;2023-08-31T05:16:20;11.70;99.90
10702;DHT22;5402;50.004;8.246;2023-08-31T05:18:46;11.70;99.90
10702;DHT22;5402;50.004;8.246;2023-08-31T05:21:14;11.80;99.90
10702;DHT22;5402;50.004;8.246;2023-08-31T05:23:41;11.70;99.90
10702;DHT22;5402;50.004;8.246;2023-08-31T05:26:09;11.70;99.90
10702;DHT22;5402;50.004;8.246;2023-08-31T05:28:36;11.90;99.90
10702;DHT22;5402;50.004;8.246;2023-08-31T05:31:02;11.90;99.90
10702;DHT22;5402;50.004;8.246;2023-08-31T05:33:30;11.90;99.90
10702;DHT22;5402;50.004;8.246;2023-08-31T05:36:00;11.90;99.90
10702;DHT22;5402;50.004;8.246;2023-08-31T05:38:28;12.00;99.90
10702;DHT22;5402;50.004;8.246;2023-08-31T05:41:02;12.00;99.90
10702;DHT22;5402;50.004;8.246;2023-08-31T05:43:30;12.10;99.90
10702;DHT22;5402;50.004;8.246;2023-08-31T05:45:57;12.20;99.90
10702;DHT22;5402;50.004;8.246;2023-08-31T05:48:24;12.10;99.90
10702;DHT22;5402;50.004;8.246;2023-08-31T05:50:51;12.30;99.90
10702;DHT22;5402;50.004;8.246;2023-08-31T05:53:17;12.30;99.90
10702;DHT22;5402;50.004;8.246;2023-08-31T05:55:44;12.30;99.90
10702;DHT22;5402;50.004;8.246;2023-08-31T05:58:11;12.40;99.90
10702;DHT22;5402;50.004;8.246;2023-08-31T06:00:39;12.50;99.90
10702;DHT22;5402;50.004;8.246;2023-08-31T06:03:08;12.50;99.90
10702;DHT22;5402;50.004;8.246;2023-08-31T06:05:36;12.50;99.90
10702;DHT22;5402;50.004;8.246;2023-08-31T06:08:04;12.60;99.90
10702;DHT22;5402;50.004;8.246;2023-08-31T06:10:31;12.60;99.90
10702;DHT22;5402;50.004;8.246;2023-08-31T06:12:57;12.60;99.90
10702;DHT22;5402;50.004;8.246;2023-08-31T06:15:24;12.70;99.90
10702;DHT22;5402;50.004;8.246;2023-08-31T06:17:52;12.70;99.90
10702;DHT22;5402;50.004;8.246;2023-08-31T06:20:19;12.80;99.90
10702;DHT22;5402;50.004;8.246;2023-08-31T06:22:46;12.90;99.90
10702;DHT22;5402;50.004;8.246;2023-08-31T06:25:12;12.80;99.90
10702;DHT22;5402;50.004;8.246;2023-08-31T06:27:42;13.00;99.90
10702;DHT22;5402;50.004;8.246;2023-08-31T06:30:09;13.00;99.90
10702;DHT22;5402;50.004;8.246;2023-08-31T06:32:42;13.00;99.90
10702;DHT22;5402;50.004;8.246;2023-08-31T06:35:10;12.90;99.90
10702;DHT22;5402;50.004;8.246;2023-08-31T06:37:37;12.90;99.90
10702;DHT22;5402;50.004;8.246;2023-08-31T06:40:05;12.90;99.90
10702;DHT22;5402;50.004;8.246;2023-08-31T06:42:33;13.00;99.90
10702;DHT22;5402;50.004;8.246;2023-08-31T06:45:00;13.30;99.90
10702;DHT22;5402;50.004;8.246;2023-08-31T06:47:27;13.30;99.90
10702;DHT22;5402;50.004;8.246;2023-08-31T06:49:54;13.40;99.90
10702;DHT22;5402;50.004;8.246;2023-08-31T06:52:22;13.60;99.90
10702;DHT22;5402;50.004;8.246;2023-08-31T06:54:49;13.80;99.90
10702;DHT22;5402;50.004;8.246;2023-08-31T06:57:15;13.90;99.90
10702;DHT22;5402;50.004;8.246;2023-08-31T06:59:42;13.90;99.90
10702;DHT22;5402;50.004;8.246;2023-08-31T07:02:10;13.90;99.90
10702;DHT22;5402;50.004;8.246;2023-08-31T07:04:36;14.00;99.90
10702;DHT22;5402;50.004;8.246;2023-08-31T07:07:05;14.10;99.90
10702;DHT22;5402;50.004;8.246;2023-08-31T07:09:35;14.20;99.90
10702;DHT22;5402;50.004;8.246;2023-08-31T07:12:02;14.30;99.90
10702;DHT22;5402;50.004;8.246;2023-08-31T07:14:28;14.50;99.90
10702;DHT22;5402;50.004;8.246;2023-08-31T07:16:55;14.70;99.90
10702;DHT22;5402;50.004;8.246;2023-08-31T07:19:23;14.80;99.90
10702;DHT22;5402;50.004;8.246;2023-08-31T07:21:50;14.80;99.90
10702;DHT22;5402;50.004;8.246;2023-08-31T07:24:16;14.70;99.90
10702;DHT22;5402;50.004;8.246;2023-08-31T07:26:44;14.70;99.90
10702;DHT22;5402;50.004;8.246;2023-08-31T07:29:11;14.90;99.90
10702;DHT22;5402;50.004;8.246;2023-08-31T07:31:38;14.80;99.90
10702;DHT22;5402;50.004;8.246;2023-08-31T07:34:05;14.80;99.90
10702;DHT22;5402;50.004;8.246;2023-08-31T07:36:33;14.80;99.90
10702;DHT22;5402;50.004;8.246;2023-08-31T07:39:00;14.80;99.90
10702;DHT22;5402;50.004;8.246;2023-08-31T07:41:27;14.80;99.90
10702;DHT22;5402;50.004;8.246;2023-08-31T07:43:55;14.70;99.90
10702;DHT22;5402;50.004;8.246;2023-08-31T07:46:21;14.90;99.90
10702;DHT22;5402;50.004;8.246;2023-08-31T07:48:48;15.00;99.90
10702;DHT22;5402;50.004;8.246;2023-08-31T07:51:16;15.10;99.90
10702;DHT22;5402;50.004;8.246;2023-08-31T07:53:48;15.10;99.90
10702;DHT22;5402;50.004;8.246;2023-08-31T07:56:15;15.40;99.90
10702;DHT22;5402;50.004;8.246;2023-08-31T07:58:42;15.60;99.90
10702;DHT22;5402;50.004;8.246;2023-08-31T08:01:10;15.80;99.90
10702;DHT22;5402;50.004;8.246;2023-08-31T08:03:36;16.00;99.90
10702;DHT22;5402;50.004;8.246;2023-08-31T08:06:03;16.10;99.90
10702;DHT22;5402;50.004;8.246;2023-08-31T08:08:30;16.20;99.90
10702;DHT22;5402;50.004;8.246;2023-08-31T08:10:56;16.50;99.90
10702;DHT22;5402;50.004;8.246;2023-08-31T08:13:25;16.60;99.90
10702;DHT22;5402;50.004;8.246;2023-08-31T08:15:51;16.70;99.90
10702;DHT22;5402;50.004;8.246;2023-08-31T08:18:19;17.10;99.90
10702;DHT22;5402;50.004;8.246;2023-08-31T08:20:47;17.20;99.90
10702;DHT22;5402;50.004;8.246;2023-08-31T08:23:14;17.40;99.90
10702;DHT22;5402;50.004;8.246;2023-08-31T08:25:41;16.90;99.90
10702;DHT22;5402;50.004;8.246;2023-08-31T08:28:08;16.90;99.90
10702;DHT22;5402;50.004;8.246;2023-08-31T08:30:34;16.60;99.90
10702;DHT22;5402;50.004;8.246;2023-08-31T08:33:01;16.60;99.90
10702;DHT22;5402;50.004;8.246;2023-08-31T08:35:29;16.60;99.90
10702;DHT22;5402;50.004;8.246;2023-08-31T08:37:56;16.70;99.90
10702;DHT22;5402;50.004;8.246;2023-08-31T08:40:22;16.70;99.90
10702;DHT22;5402;50.004;8.246;2023-08-31T08:42:53;16.80;99.90
10702;DHT22;5402;50.004;8.246;2023-08-31T08:45:20;16.60;99.90
10702;DHT22;5402;50.004;8.246;2023-08-31T08:47:51;16.70;99.90
10702;DHT22;5402;50.004;8.246;2023-08-31T08:50:22;16.50;99.90
10702;DHT22;5402;50.004;8.246;2023-08-31T08:52:51;16.60;99.90
10702;DHT22;5402;50.004;8.246;2023-08-31T08:55:18;16.80;99.90
10702;DHT22;5402;50.004;8.246;2023-08-31T08:57:46;16.60;99.90
10702;DHT22;5402;50.004;8.246;2023-08-31T09:00:13;16.60;99.90
10702;DHT22;5402;50.004;8.246;2023-08-31T09:02:40;16.60;99.90
10702;DHT22;5402;50.004;8.246;2023-08-31T09:05:08;16.60;99.90
10702;DHT22;5402;50.004;8.246;2023-08-31T09:07:35;16.70;99.90
10702;DHT22;5402;50.004;8.246;2023-08-31T09:10:04;16.70;99.90
10702;DHT22;5402;50.004;8.246;2023-08-31T09:12:32;16.70;99.90
10702;DHT22;5402;50.004;8.246;2023-08-31T09:15:04;16.60;99.90
10702;DHT22;5402;50.004;8.246;2023-08-31T09:17:41;16.70;99.90
10702;DHT22;5402;50.004;8.246;2023-08-31T09:20:10;16.80;99.90
10702;DHT22;5402;50.004;8.246;2023-08-31T09:22:37;17.10;99.90
10702;DHT22;5402;50.004;8.246;2023-08-31T09:25:11;17.40;99.90
10702;DHT22;5402;50.004;8.246;2023-08-31T09:27:38;17.40;99.90
10702;DHT22;5402;50.004;8.246;2023-08-31T09:30:07;17.70;99.90
10702;DHT22;5402;50.004;8.246;2023-08-31T09:32:34;18.00;99.90
10702;DHT22;5402;50.004;8.246;2023-08-31T09:35:00;18.00;99.90
10702;DHT22;5402;50.004;8.246;2023-08-31T09:37:29;17.70;99.90
10702;DHT22;5402;50.004;8.246;2023-08-31T09:39:56;17.80;99.90
10702;DHT22;5402;50.004;8.246;2023-08-31T09:42:38;18.00;99.90
10702;DHT22;5402;50.004;8.246;2023-08-31T09:45:06;18.40;99.90
10702;DHT22;5402;50.004;8.246;2023-08-31T09:47:35;18.30;99.90
10702;DHT22;5402;50.004;8.246;2023-08-31T09:50:03;18.30;99.90
10702;DHT22;5402;50.004;8.246;2023-08-31T09:52:30;18.30;99.90
10702;DHT22;5402;50.004;8.246;2023-08-31T09:54:58;18.30;99.90
10702;DHT22;5402;50.004;8.246;2023-08-31T09:57:29;18.30;99.90
10702;DHT22;5402;50.004;8.246;2023-08-31T09:59:58;18.30;99.90
10702;DHT22;5402;50.004;8.246;2023-08-31T10:02:26;18.10;99.90
10702;DHT22;5402;50.004;8.246;2023-08-31T10:04:53;18.00;99.90
10702;DHT22;5402;50.004;8.246;2023-08-31T10:07:21;17.90;99.90
10702;DHT22;5402;50.004;8.246;2023-08-31T10:09:48;18.10;99.90
10702;DHT22;5402;50.004;8.246;2023-08-31T10:12:16;18.10;99.90
10702;DHT22;5402;50.004;8.246;2023-08-31T10:14:45;18.10;99.90
10702;DHT22;5402;50.004;8.246;2023-08-31T10:17:14;18.20;99.90
10702;DHT22;5402;50.004;8.246;2023-08-31T10:19:41;18.70;99.90
10702;DHT22;5402;50.004;8.246;2023-08-31T10:22:08;18.90;99.90
10702;DHT22;5402;50.004;8.246;2023-08-31T10:24:58;19.30;99.90
10702;DHT22;5402;50.004;8.246;2023-08-31T10:27:25;19.60;99.90
10702;DHT22;5402;50.004;8.246;2023-08-31T10:29:53;20.00;99.90
10702;DHT22;5402;50.004;8.246;2023-08-31T10:32:20;20.20;99.90
10702;DHT22;5402;50.004;8.246;2023-08-31T10:35:07;20.10;99.90
10702;DHT22;5402;50.004;8.246;2023-08-31T10:37:34;19.80;99.90
10702;DHT22;5402;50.004;8.246;2023-08-31T10:40:08;19.50;99.90
10702;DHT22;5402;50.004;8.246;2023-08-31T10:42:43;19.40;99.90
10702;DHT22;5402;50.004;8.246;2023-08-31T10:45:12;19.30;99.90
10702;DHT22;5402;50.004;8.246;2023-08-31T10:47:40;19.30;99.90
10702;DHT22;5402;50.004;8.246;2023-08-31T10:50:21;19.30;99.90
10702;DHT22;5402;50.004;8.246;2023-08-31T10:52:48;19.30;99.90
10702;DHT22;5402;50.004;8.246;2023-08-31T10:55:15;19.30;99.90
10702;DHT22;5402;50.004;8.246;2023-08-31T10:57:42;19.20;99.90
10702;DHT22;5402;50.004;8.246;2023-08-31T11:00:09;19.20;99.90
10702;DHT22;5402;50.004;8.246;2023-08-31T11:02:41;19.10;99.90
10702;DHT22;5402;50.004;8.246;2023-08-31T11:05:09;19.10;99.90
10702;DHT22;5402;50.004;8.246;2023-08-31T11:07:37;19.10;99.90
10702;DHT22;5402;50.004;8.246;2023-08-31T11:10:10;19.10;99.90
10702;DHT22;5402;50.004;8.246;2023-08-31T11:12:37;19.10;99.90
10702;DHT22;5402;50.004;8.246;2023-08-31T11:15:05;19.00;99.90
10702;DHT22;5402;50.004;8.246;2023-08-31T11:17:33;18.90;99.90
10702;DHT22;5402;50.004;8.246;2023-08-31T11:20:01;19.00;99.90
10702;DHT22;5402;50.004;8.246;2023-08-31T11:22:31;19.00;99.90
10702;DHT22;5402;50.004;8.246;2023-08-31T11:24:59;19.00;99.90
10702;DHT22;5402;50.004;8.246;2023-08-31T11:27:25;19.00;99.90
10702;DHT22;5402;50.004;8.246;2023-08-31T11:29:52;19.10;99.90
10702;DHT22;5402;50.004;8.246;2023-08-31T11:32:19;19.20;99.90
10702;DHT22;5402;50.004;8.246;2023-08-31T11:34:46;19.70;99.90
10702;DHT22;5402;50.004;8.246;2023-08-31T11:37:14;20.30;99.90
10702;DHT22;5402;50.004;8.246;2023-08-31T11:39:42;20.60;99.90
10702;DHT22;5402;50.004;8.246;2023-08-31T11:42:16;20.70;99.90
10702;DHT22;5402;50.004;8.246;2023-08-31T11:44:44;20.50;99.90
10702;DHT22;5402;50.004;8.246;2023-08-31T11:47:12;20.90;99.90
10702;DHT22;5402;50.004;8.246;2023-08-31T11:49:39;21.00;99.90
10702;DHT22;5402;50.004;8.246;2023-08-31T11:52:06;21.10;99.90
10702;DHT22;5402;50.004;8.246;2023-08-31T11:54:37;21.30;99.90
10702;DHT22;5402;50.004;8.246;2023-08-31T11:57:06;21.10;99.90
10702;DHT22;5402;50.004;8.246;2023-08-31T11:59:35;21.00;99.90
10702;DHT22;5402;50.004;8.246;2023-08-31T12:02:05;20.80;99.90
10702;DHT22;5402;50.004;8.246;2023-08-31T12:04:32;20.90;99.90
10702;DHT22;5402;50.004;8.246;2023-08-31T12:07:02;21.10;99.90
10702;DHT22;5402;50.004;8.246;2023-08-31T12:09:30;21.20;99.90
10702;DHT22;5402;50.004;8.246;2023-08-31T12:11:59;21.30;99.90
10702;DHT22;5402;50.004;8.246;2023-08-31T12:14:27;21.40;99.90
10702;DHT22;5402;50.004;8.246;2023-08-31T12:17:00;21.40;99.90
10702;DHT22;5402;50.004;8.246;2023-08-31T12:19:28;21.60;99.90
10702;DHT22;5402;50.004;8.246;2023-08-31T12:21:56;21.40;99.90
10702;DHT22;5402;50.004;8.246;2023-08-31T12:24:23;21.50;99.90
10702;DHT22;5402;50.004;8.246;2023-08-31T12:26:51;21.60;99.90
10702;DHT22;5402;50.004;8.246;2023-08-31T12:29:20;21.70;99.90
10702;DHT22;5402;50.004;8.246;2023-08-31T12:31:48;21.70;99.90
10702;DHT22;5402;50.004;8.246;2023-08-31T12:34:15;21.60;99.90
10702;DHT22;5402;50.004;8.246;2023-08-31T12:36:42;21.20;99.90
10702;DHT22;5402;50.004;8.246;2023-08-31T12:39:09;21.10;99.90
10702;DHT22;5402;50.004;8.246;2023-08-31T12:41:37;21.20;99.90
10702;DHT22;5402;50.004;8.246;2023-08-31T12:44:05;21.20;97.70
10702;DHT22;5402;50.004;8.246;2023-08-31T12:46:33;21.20;96.80
10702;DHT22;5402;50.004;8.246;2023-08-31T12:49:00;21.30;99.40
10702;DHT22;5402;50.004;8.246;2023-08-31T12:51:29;21.40;99.10
10702;DHT22;5402;50.004;8.246;2023-08-31T12:53:56;21.40;99.50
10702;DHT22;5402;50.004;8.246;2023-08-31T12:56:22;21.10;98.20
10702;DHT22;5402;50.004;8.246;2023-08-31T12:58:49;21.10;99.90
10702;DHT22;5402;50.004;8.246;2023-08-31T13:01:18;21.10;99.90
10702;DHT22;5402;50.004;8.246;2023-08-31T13:03:47;21.10;99.90
10702;DHT22;5402;50.004;8.246;2023-08-31T13:06:14;21.20;99.90
10702;DHT22;5402;50.004;8.246;2023-08-31T13:08:42;21.00;99.40
10702;DHT22;5402;50.004;8.246;2023-08-31T13:11:09;20.90;96.10
10702;DHT22;5402;50.004;8.246;2023-08-31T13:13:36;21.10;98.30
10702;DHT22;5402;50.004;8.246;2023-08-31T13:16:03;21.10;99.10
10702;DHT22;5402;50.004;8.246;2023-08-31T13:18:30;21.20;99.30
10702;DHT22;5402;50.004;8.246;2023-08-31T13:20:59;21.10;99.90
10702;DHT22;5402;50.004;8.246;2023-08-31T13:23:26;20.60;99.90
10702;DHT22;5402;50.004;8.246;2023-08-31T13:25:53;20.30;99.90
10702;DHT22;5402;50.004;8.246;2023-08-31T13:28:21;20.30;99.30
10702;DHT22;5402;50.004;8.246;2023-08-31T13:30:48;20.40;99.90
10702;DHT22;5402;50.004;8.246;2023-08-31T13:33:15;20.40;99.90
10702;DHT22;5402;50.004;8.246;2023-08-31T13:35:42;20.40;99.90
10702;DHT22;5402;50.004;8.246;2023-08-31T13:38:10;20.20;99.90
10702;DHT22;5402;50.004;8.246;2023-08-31T13:40:36;20.20;99.60
10702;DHT22;5402;50.004;8.246;2023-08-31T13:43:03;20.20;99.90
10702;DHT22;5402;50.004;8.246;2023-08-31T13:45:31;20.30;99.80
10702;DHT22;5402;50.004;8.246;2023-08-31T13:47:58;20.40;99.10
10702;DHT22;5402;50.004;8.246;2023-08-31T13:50:25;20.50;98.20
10702;DHT22;5402;50.004;8.246;2023-08-31T13:52:52;20.60;98.20
10702;DHT22;5402;50.004;8.246;2023-08-31T13:55:21;20.70;97.70
10702;DHT22;5402;50.004;8.246;2023-08-31T13:57:49;20.90;97.00
10702;DHT22;5402;50.004;8.246;2023-08-31T14:00:16;20.90;98.60
10702;DHT22;5402;50.004;8.246;2023-08-31T14:02:43;20.90;99.10
10702;DHT22;5402;50.004;8.246;2023-08-31T14:05:10;20.90;98.40
10702;DHT22;5402;50.004;8.246;2023-08-31T14:07:37;21.00;99.60
10702;DHT22;5402;50.004;8.246;2023-08-31T14:10:05;20.90;99.80
10702;DHT22;5402;50.004;8.246;2023-08-31T14:12:33;21.10;98.50
10702;DHT22;5402;50.004;8.246;2023-08-31T14:15:00;21.20;97.80
10702;DHT22;5402;50.004;8.246;2023-08-31T14:17:30;21.20;98.30
10702;DHT22;5402;50.004;8.246;2023-08-31T14:19:58;21.20;98.20
10702;DHT22;5402;50.004;8.246;2023-08-31T14:22:27;21.10;99.00
10702;DHT22;5402;50.004;8.246;2023-08-31T14:24:54;21.20;99.40
10702;DHT22;5402;50.004;8.246;2023-08-31T14:27:21;21.10;99.50
10702;DHT22;5402;50.004;8.246;2023-08-31T14:29:49;21.10;99.90
10702;DHT22;5402;50.004;8.246;2023-08-31T14:32:16;21.20;99.70
10702;DHT22;5402;50.004;8.246;2023-08-31T14:34:43;21.20;99.20
10702;DHT22;5402;50.004;8.246;2023-08-31T14:37:09;21.20;98.80
10702;DHT22;5402;50.004;8.246;2023-08-31T14:39:36;21.30;98.50
10702;DHT22;5402;50.004;8.246;2023-08-31T14:42:03;21.20;98.70
10702;DHT22;5402;50.004;8.246;2023-08-31T14:44:30;21.10;99.10
10702;DHT22;5402;50.004;8.246;2023-08-31T14:46:58;20.90;98.90
10702;DHT22;5402;50.004;8.246;2023-08-31T14:49:24;20.60;99.10
10702;DHT22;5402;50.004;8.246;2023-08-31T14:51:51;20.40;99.40
10702;DHT22;5402;50.004;8.246;2023-08-31T14:54:18;20.20;99.90
10702;DHT22;5402;50.004;8.246;2023-08-31T14:56:45;20.20;99.60
10702;DHT22;5402;50.004;8.246;2023-08-31T14:59:12;20.20;99.90
10702;DHT22;5402;50.004;8.246;2023-08-31T15:01:38;20.20;99.50
10702;DHT22;5402;50.004;8.246;2023-08-31T15:04:07;20.20;99.90
10702;DHT22;5402;50.004;8.246;2023-08-31T15:06:33;20.40;99.90
10702;DHT22;5402;50.004;8.246;2023-08-31T15:09:00;20.50;99.90
10702;DHT22;5402;50.004;8.246;2023-08-31T15:11:27;20.50;99.90
10702;DHT22;5402;50.004;8.246;2023-08-31T15:13:54;20.50;99.90
10702;DHT22;5402;50.004;8.246;2023-08-31T15:16:21;20.50;99.90
10702;DHT22;5402;50.004;8.246;2023-08-31T15:18:48;20.40;99.90
10702;DHT22;5402;50.004;8.246;2023-08-31T15:21:16;20.20;99.90
10702;DHT22;5402;50.004;8.246;2023-08-31T15:23:43;20.20;99.90
10702;DHT22;5402;50.004;8.246;2023-08-31T15:26:10;20.10;99.90
10702;DHT22;5402;50.004;8.246;2023-08-31T15:28:38;20.20;99.90
10702;DHT22;5402;50.004;8.246;2023-08-31T15:31:05;20.20;99.90
10702;DHT22;5402;50.004;8.246;2023-08-31T15:33:32;20.10;99.90
10702;DHT22;5402;50.004;8.246;2023-08-31T15:36:02;20.00;99.90
10702;DHT22;5402;50.004;8.246;2023-08-31T15:38:32;20.00;99.90
10702;DHT22;5402;50.004;8.246;2023-08-31T15:40:59;19.90;99.90
10702;DHT22;5402;50.004;8.246;2023-08-31T15:43:29;19.90;99.90
10702;DHT22;5402;50.004;8.246;2023-08-31T15:45:58;19.90;99.90
10702;DHT22;5402;50.004;8.246;2023-08-31T15:48:25;19.80;99.90